sensor_id;sensor_type;location;lat;lon;timestamp;pressure;altitude;pressure_sealevel;temperature;humidity
5062;BME280;2351;50.812;12.872;2022-10-16T00:02:19;97651.78;;;14.43;100.00
5062;BME280;2351;50.812;12.872;2022-10-16T00:04:50;97653.44;;;14.44;100.00
5062;BME280;2351;50.812;12.872;2022-10-16T00:07:22;97655.44;;;14.42;100.00
5062;BME280;2351;50.812;12.872;2022-10-16T00:09:53;97651.25;;;14.40;100.00
5062;BME280;2351;50.812;12.872;2022-10-16T00:12:26;97653.09;;;14.39;100.00
5062;BME280;2351;50.812;12.872;2022-10-16T00:14:58;97658.75;;;14.36;100.00
5062;BME280;2351;50.812;12.872;2022-10-16T00:17:29;97661.41;;;14.36;100.00
5062;BME280;2351;50.812;12.872;2022-10-16T00:20:01;97656.88;;;14.37;100.00
5062;BME280;2351;50.812;12.872;2022-10-16T00:22:33;97671.19;;;14.36;100.00
5062;BME280;2351;50.812;12.872;2022-10-16T00:25:04;97670.38;;;14.35;100.00
5062;BME280;2351;50.812;12.872;2022-10-16T00:27:37;97672.88;;;14.37;100.00
5062;BME280;2351;50.812;12.872;2022-10-16T00:30:09;97673.41;;;14.40;100.00
5062;BME280;2351;50.812;12.872;2022-10-16T00:32:41;97667.75;;;14.43;100.00
5062;BME280;2351;50.812;12.872;2022-10-16T00:35:13;97678.72;;;14.49;100.00
5062;BME280;2351;50.812;12.872;2022-10-16T00:37:44;97680.22;;;14.51;100.00
5062;BME280;2351;50.812;12.872;2022-10-16T00:40:16;97686.91;;;14.55;100.00
5062;BME280;2351;50.812;12.872;2022-10-16T00:42:49;97687.22;;;14.60;100.00
5062;BME280;2351;50.812;12.872;2022-10-16T00:45:20;97686.75;;;14.65;100.00
5062;BME280;2351;50.812;12.872;2022-10-16T00:47:53;97689.09;;;14.68;100.00
5062;BME280;2351;50.812;12.872;2022-10-16T00:50:28;97690.44;;;14.72;100.00
5062;BME280;2351;50.812;12.872;2022-10-16T00:53:01;97696.44;;;14.74;100.00
5062;BME280;2351;50.812;12.872;2022-10-16T00:55:34;97696.44;;;14.74;100.00
5062;BME280;2351;50.812;12.872;2022-10-16T00:58:07;97698.59;;;14.79;100.00
5062;BME280;2351;50.812;12.872;2022-10-16T01:00:38;97700.09;;;14.82;100.00
5062;BME280;2351;50.812;12.872;2022-10-16T01:03:23;97706.78;;;14.86;100.00
5062;BME280;2351;50.812;12.872;2022-10-16T01:06:05;97708.28;;;14.88;100.00
5062;BME280;2351;50.812;12.872;2022-10-16T01:08:50;97704.94;;;14.86;100.00
5062;BME280;2351;50.812;12.872;2022-10-16T01:11:29;97702.28;;;14.86;100.00
5062;BME280;2351;50.812;12.872;2022-10-16T01:14:10;97697.13;;;14.85;100.00
5062;BME280;2351;50.812;12.872;2022-10-16T01:16:48;97702.94;;;14.88;100.00
5062;BME280;2351;50.812;12.872;2022-10-16T01:19:35;97699.28;;;14.89;100.00
5062;BME280;2351;50.812;12.872;2022-10-16T01:22:09;97695.63;;;14.90;100.00
5062;BME280;2351;50.812;12.872;2022-10-16T01:24:43;97692.78;;;14.92;100.00
5062;BME280;2351;50.812;12.872;2022-10-16T01:27:20;97692.63;;;14.94;100.00
5062;BME280;2351;50.812;12.872;2022-10-16T01:29:54;97695.97;;;14.96;100.00
5062;BME280;2351;50.812;12.872;2022-10-16T01:32:32;97696.63;;;14.98;100.00
5062;BME280;2351;50.812;12.872;2022-10-16T01:35:09;97699.13;;;14.99;100.00
5062;BME280;2351;50.812;12.872;2022-10-16T01:37:47;97695.44;;;15.00;100.00
5062;BME280;2351;50.812;12.872;2022-10-16T01:40:21;97695.13;;;15.03;100.00
5062;BME280;2351;50.812;12.872;2022-10-16T01:43:00;97691.78;;;15.01;100.00
5062;BME280;2351;50.812;12.872;2022-10-16T01:45:35;97699.78;;;15.01;100.00
5062;BME280;2351;50.812;12.872;2022-10-16T01:48:09;97691.78;;;15.01;99.84
5062;BME280;2351;50.812;12.872;2022-10-16T01:50:44;97687.78;;;14.97;99.93
5062;BME280;2351;50.812;12.872;2022-10-16T01:53:21;97693.28;;;14.96;99.89
5062;BME280;2351;50.812;12.872;2022-10-16T01:55:55;97695.28;;;14.94;99.74
5062;BME280;2351;50.812;12.872;2022-10-16T01:58:33;97701.94;;;14.89;99.61
5062;BME280;2351;50.812;12.872;2022-10-16T02:01:07;97687.81;;;14.89;99.63
5062;BME280;2351;50.812;12.872;2022-10-16T02:03:42;97689.78;;;14.87;99.38
5062;BME280;2351;50.812;12.872;2022-10-16T02:06:15;97704.25;;;14.84;99.56
5062;BME280;2351;50.812;12.872;2022-10-16T02:08:47;97700.09;;;14.82;99.68
5062;BME280;2351;50.812;12.872;2022-10-16T02:11:18;97700.63;;;14.77;99.55
5062;BME280;2351;50.812;12.872;2022-10-16T02:13:55;97702.59;;;14.75;99.59
5062;BME280;2351;50.812;12.872;2022-10-16T02:16:33;97705.41;;;14.73;99.54
5062;BME280;2351;50.812;12.872;2022-10-16T02:19:06;97696.59;;;14.73;99.44
5062;BME280;2351;50.812;12.872;2022-10-16T02:21:43;97700.28;;;14.72;99.39
5062;BME280;2351;50.812;12.872;2022-10-16T02:24:20;97695.94;;;14.71;99.56
5062;BME280;2351;50.812;12.872;2022-10-16T02:26:57;97706.59;;;14.71;99.37
5062;BME280;2351;50.812;12.872;2022-10-16T02:29:34;97715.72;;;14.68;99.45
5062;BME280;2351;50.812;12.872;2022-10-16T02:32:10;97712.38;;;14.66;99.49
5062;BME280;2351;50.812;12.872;2022-10-16T02:34:44;97708.88;;;14.66;99.40
5062;BME280;2351;50.812;12.872;2022-10-16T02:37:17;97697.56;;;14.64;99.40
5062;BME280;2351;50.812;12.872;2022-10-16T02:39:49;97698.88;;;14.59;99.46
5062;BME280;2351;50.812;12.872;2022-10-16T02:42:27;97697.19;;;14.58;99.45
5062;BME280;2351;50.812;12.872;2022-10-16T02:45:01;97698.38;;;14.56;99.49
5062;BME280;2351;50.812;12.872;2022-10-16T02:47:32;97697.88;;;14.52;99.61
5062;BME280;2351;50.812;12.872;2022-10-16T02:50:05;97701.69;;;14.50;99.20
5062;BME280;2351;50.812;12.872;2022-10-16T02:52:36;97702.69;;;14.49;99.27
5062;BME280;2351;50.812;12.872;2022-10-16T02:55:08;97703.00;;;14.45;99.31
5062;BME280;2351;50.812;12.872;2022-10-16T02:57:40;97708.69;;;14.42;99.27
5062;BME280;2351;50.812;12.872;2022-10-16T03:00:15;97708.81;;;14.41;99.28
5062;BME280;2351;50.812;12.872;2022-10-16T03:02:46;97702.00;;;14.38;99.30
5062;BME280;2351;50.812;12.872;2022-10-16T03:05:18;97718.13;;;14.37;99.13
5062;BME280;2351;50.812;12.872;2022-10-16T03:07:49;97712.97;;;14.35;99.38
5062;BME280;2351;50.812;12.872;2022-10-16T03:10:22;97707.47;;;14.37;99.61
5062;BME280;2351;50.812;12.872;2022-10-16T03:12:54;97710.81;;;14.39;99.72
5062;BME280;2351;50.812;12.872;2022-10-16T03:15:27;97715.66;;;14.43;100.00
5062;BME280;2351;50.812;12.872;2022-10-16T03:17:59;97712.66;;;14.46;99.99
5062;BME280;2351;50.812;12.872;2022-10-16T03:20:31;97718.66;;;14.49;99.97
5062;BME280;2351;50.812;12.872;2022-10-16T03:23:03;97706.69;;;14.53;100.00
5062;BME280;2351;50.812;12.872;2022-10-16T03:25:34;97705.38;;;14.57;99.83
5062;BME280;2351;50.812;12.872;2022-10-16T03:28:06;97706.03;;;14.59;100.00
5062;BME280;2351;50.812;12.872;2022-10-16T03:30:39;97705.03;;;14.60;100.00
5062;BME280;2351;50.812;12.872;2022-10-16T03:33:10;97710.03;;;14.63;100.00
5062;BME280;2351;50.812;12.872;2022-10-16T03:35:42;97712.84;;;14.61;99.90
5062;BME280;2351;50.812;12.872;2022-10-16T03:38:13;97712.03;;;14.61;100.00
5062;BME280;2351;50.812;12.872;2022-10-16T03:40:45;97714.84;;;14.59;99.94
5062;BME280;2351;50.812;12.872;2022-10-16T03:43:16;97723.19;;;14.56;100.00
5062;BME280;2351;50.812;12.872;2022-10-16T03:45:51;97733.16;;;14.54;99.85
5062;BME280;2351;50.812;12.872;2022-10-16T03:48:22;97727.31;;;14.51;99.81
5062;BME280;2351;50.812;12.872;2022-10-16T03:50:54;97728.47;;;14.48;99.92
5062;BME280;2351;50.812;12.872;2022-10-16T03:53:25;97738.63;;;14.44;99.85
5062;BME280;2351;50.812;12.872;2022-10-16T03:55:57;97738.09;;;14.41;99.81
5062;BME280;2351;50.812;12.872;2022-10-16T03:58:29;97744.28;;;14.41;99.89
5062;BME280;2351;50.812;12.872;2022-10-16T04:01:02;97735.63;;;14.39;99.74
5062;BME280;2351;50.812;12.872;2022-10-16T04:03:34;97742.94;;;14.37;99.91
5062;BME280;2351;50.812;12.872;2022-10-16T04:06:08;97739.59;;;14.35;100.00
5062;BME280;2351;50.812;12.872;2022-10-16T04:08:42;97735.94;;;14.36;99.93
5062;BME280;2351;50.812;12.872;2022-10-16T04:11:14;97741.56;;;14.33;100.00
5062;BME280;2351;50.812;12.872;2022-10-16T04:13:45;97733.78;;;14.40;100.00
5062;BME280;2351;50.812;12.872;2022-10-16T04:16:18;97740.28;;;14.45;99.93
5062;BME280;2351;50.812;12.872;2022-10-16T04:18:50;97738.28;;;14.48;99.84
5062;BME280;2351;50.812;12.872;2022-10-16T04:21:21;97754.25;;;14.48;100.00
5062;BME280;2351;50.812;12.872;2022-10-16T04:23:53;97750.59;;;14.49;100.00
5062;BME280;2351;50.812;12.872;2022-10-16T04:26:24;97745.28;;;14.49;100.00
5062;BME280;2351;50.812;12.872;2022-10-16T04:28:56;97734.63;;;14.49;100.00
5062;BME280;2351;50.812;12.872;2022-10-16T04:31:29;97742.63;;;14.49;100.00
5062;BME280;2351;50.812;12.872;2022-10-16T04:34:01;97751.44;;;14.49;100.00
5062;BME280;2351;50.812;12.872;2022-10-16T04:36:32;97747.28;;;14.46;100.00
5062;BME280;2351;50.812;12.872;2022-10-16T04:39:04;97750.09;;;14.45;100.00
5062;BME280;2351;50.812;12.872;2022-10-16T04:41:35;97751.78;;;14.46;100.00
5062;BME280;2351;50.812;12.872;2022-10-16T04:44:07;97755.44;;;14.45;100.00
5062;BME280;2351;50.812;12.872;2022-10-16T04:46:40;97757.28;;;14.44;100.00
5062;BME280;2351;50.812;12.872;2022-10-16T04:49:12;97764.72;;;14.41;100.00
5062;BME280;2351;50.812;12.872;2022-10-16T04:51:43;97759.56;;;14.39;100.00
5062;BME280;2351;50.812;12.872;2022-10-16T04:54:15;97767.03;;;14.36;100.00
5062;BME280;2351;50.812;12.872;2022-10-16T04:56:46;97764.53;;;14.34;100.00
5062;BME280;2351;50.812;12.872;2022-10-16T04:59:20;97764.84;;;14.31;100.00
5062;BME280;2351;50.812;12.872;2022-10-16T05:01:53;97770.19;;;14.31;100.00
5062;BME280;2351;50.812;12.872;2022-10-16T05:04:25;97759.72;;;14.29;100.00
5062;BME280;2351;50.812;12.872;2022-10-16T05:06:57;97761.22;;;14.32;100.00
5062;BME280;2351;50.812;12.872;2022-10-16T05:09:28;97766.53;;;14.32;100.00
5062;BME280;2351;50.812;12.872;2022-10-16T05:12:00;97764.53;;;14.34;100.00
5062;BME280;2351;50.812;12.872;2022-10-16T05:14:32;97771.72;;;14.34;100.00
5062;BME280;2351;50.812;12.872;2022-10-16T05:17:05;97779.84;;;14.32;100.00
5062;BME280;2351;50.812;12.872;2022-10-16T05:19:37;97784.81;;;14.27;100.00
5062;BME280;2351;50.812;12.872;2022-10-16T05:22:09;97783.97;;;14.26;100.00
5062;BME280;2351;50.812;12.872;2022-10-16T05:24:40;97784.81;;;14.27;100.00
5062;BME280;2351;50.812;12.872;2022-10-16T05:27:12;97792.97;;;14.25;100.00
5062;BME280;2351;50.812;12.872;2022-10-16T05:29:49;97795.44;;;14.27;100.00
5062;BME280;2351;50.812;12.872;2022-10-16T05:32:22;97807.09;;;14.26;100.00
5062;BME280;2351;50.812;12.872;2022-10-16T05:34:53;97805.41;;;14.25;100.00
5062;BME280;2351;50.812;12.872;2022-10-16T05:37:25;97809.75;;;14.26;100.00
5062;BME280;2351;50.812;12.872;2022-10-16T05:39:59;97811.41;;;14.27;100.00
5062;BME280;2351;50.812;12.872;2022-10-16T05:42:31;97822.91;;;14.27;100.00
5062;BME280;2351;50.812;12.872;2022-10-16T05:45:04;97816.44;;;14.30;100.00
5062;BME280;2351;50.812;12.872;2022-10-16T05:47:38;97812.78;;;14.31;100.00
5062;BME280;2351;50.812;12.872;2022-10-16T05:50:09;97811.97;;;14.30;100.00
5062;BME280;2351;50.812;12.872;2022-10-16T05:52:46;97817.78;;;14.34;100.00
5062;BME280;2351;50.812;12.872;2022-10-16T05:55:18;97820.28;;;14.36;100.00
5062;BME280;2351;50.812;12.872;2022-10-16T05:57:49;97821.81;;;14.38;100.00
5062;BME280;2351;50.812;12.872;2022-10-16T06:00:21;97824.47;;;14.38;100.00
5062;BME280;2351;50.812;12.872;2022-10-16T06:02:57;97817.84;;;14.42;100.00
5062;BME280;2351;50.812;12.872;2022-10-16T06:05:28;97822.00;;;14.45;100.00
5062;BME280;2351;50.812;12.872;2022-10-16T06:08:00;97813.84;;;14.46;100.00
5062;BME280;2351;50.812;12.872;2022-10-16T06:10:31;97825.16;;;14.49;100.00
5062;BME280;2351;50.812;12.872;2022-10-16T06:13:03;97820.38;;;14.52;100.00
5062;BME280;2351;50.812;12.872;2022-10-16T06:15:34;97828.19;;;14.54;100.00
5062;BME280;2351;50.812;12.872;2022-10-16T06:18:07;97832.69;;;14.53;100.00
5062;BME280;2351;50.812;12.872;2022-10-16T06:20:39;97841.50;;;14.54;100.00
5062;BME280;2351;50.812;12.872;2022-10-16T06:23:11;97857.47;;;14.54;100.00
5062;BME280;2351;50.812;12.872;2022-10-16T06:25:42;97851.16;;;14.55;100.00
5062;BME280;2351;50.812;12.872;2022-10-16T06:28:14;97854.50;;;14.57;100.00
5062;BME280;2351;50.812;12.872;2022-10-16T06:30:46;97843.84;;;14.57;100.00
5062;BME280;2351;50.812;12.872;2022-10-16T06:33:19;97854.50;;;14.57;100.00
5062;BME280;2351;50.812;12.872;2022-10-16T06:35:50;97862.31;;;14.58;100.00
5062;BME280;2351;50.812;12.872;2022-10-16T06:38:22;97869.00;;;14.63;100.00
5062;BME280;2351;50.812;12.872;2022-10-16T06:40:54;97878.81;;;14.62;100.00
5062;BME280;2351;50.812;12.872;2022-10-16T06:43:28;97866.88;;;14.66;100.00
5062;BME280;2351;50.812;12.872;2022-10-16T06:46:04;97874.44;;;14.87;100.00
5062;BME280;2351;50.812;12.872;2022-10-16T06:48:39;97880.63;;;14.96;100.00
5062;BME280;2351;50.812;12.872;2022-10-16T06:51:12;97877.28;;;14.94;100.00
5062;BME280;2351;50.812;12.872;2022-10-16T06:53:46;97884.28;;;14.95;100.00
5062;BME280;2351;50.812;12.872;2022-10-16T06:56:20;97887.13;;;14.94;100.00
5062;BME280;2351;50.812;12.872;2022-10-16T06:58:52;97896.63;;;14.96;100.00
5062;BME280;2351;50.812;12.872;2022-10-16T07:01:25;97897.34;;;15.06;100.00
5062;BME280;2351;50.812;12.872;2022-10-16T07:03:58;97899.34;;;15.13;100.00
5062;BME280;2351;50.812;12.872;2022-10-16T07:06:31;97900.84;;;15.15;100.00
5062;BME280;2351;50.812;12.872;2022-10-16T07:09:05;97900.69;;;15.17;100.00
5062;BME280;2351;50.812;12.872;2022-10-16T07:11:39;97902.34;;;15.18;100.00
5062;BME280;2351;50.812;12.872;2022-10-16T07:14:15;97901.34;;;15.19;100.00
5062;BME280;2351;50.812;12.872;2022-10-16T07:16:47;97916.22;;;15.21;100.00
5062;BME280;2351;50.812;12.872;2022-10-16T07:19:20;97915.38;;;15.21;100.00
5062;BME280;2351;50.812;12.872;2022-10-16T07:21:52;97918.69;;;15.23;100.00
5062;BME280;2351;50.812;12.872;2022-10-16T07:24:24;97914.72;;;15.27;100.00
5062;BME280;2351;50.812;12.872;2022-10-16T07:26:57;97929.22;;;15.33;100.00
5062;BME280;2351;50.812;12.872;2022-10-16T07:29:29;97922.41;;;15.39;100.00
5062;BME280;2351;50.812;12.872;2022-10-16T07:32:01;97919.41;;;15.42;100.00
5062;BME280;2351;50.812;12.872;2022-10-16T07:34:34;97914.41;;;15.47;100.00
5062;BME280;2351;50.812;12.872;2022-10-16T07:37:05;97914.91;;;15.50;100.00
5062;BME280;2351;50.812;12.872;2022-10-16T07:39:37;97933.13;;;15.55;100.00
5062;BME280;2351;50.812;12.872;2022-10-16T07:42:11;97929.09;;;15.59;100.00
5062;BME280;2351;50.812;12.872;2022-10-16T07:44:42;97915.63;;;15.61;100.00
5062;BME280;2351;50.812;12.872;2022-10-16T07:47:20;97917.44;;;15.69;100.00
5062;BME280;2351;50.812;12.872;2022-10-16T07:49:53;97931.47;;;15.71;100.00
5062;BME280;2351;50.812;12.872;2022-10-16T07:52:26;97925.63;;;15.75;100.00
5062;BME280;2351;50.812;12.872;2022-10-16T07:54:58;97918.97;;;15.79;100.00
5062;BME280;2351;50.812;12.872;2022-10-16T07:57:29;97916.63;;;15.85;100.00
5062;BME280;2351;50.812;12.872;2022-10-16T08:00:01;97924.97;;;15.90;100.00
5062;BME280;2351;50.812;12.872;2022-10-16T08:02:42;97919.81;;;15.96;100.00
5062;BME280;2351;50.812;12.872;2022-10-16T08:05:15;97933.16;;;16.05;100.00
5062;BME280;2351;50.812;12.872;2022-10-16T08:08:06;97928.81;;;16.12;100.00
5062;BME280;2351;50.812;12.872;2022-10-16T08:10:38;97948.34;;;16.21;100.00
5062;BME280;2351;50.812;12.872;2022-10-16T08:13:10;97949.16;;;16.30;100.00
5062;BME280;2351;50.812;12.872;2022-10-16T08:15:43;97945.63;;;16.37;100.00
5062;BME280;2351;50.812;12.872;2022-10-16T08:18:17;97945.16;;;16.42;100.00
5062;BME280;2351;50.812;12.872;2022-10-16T08:20:55;97948.81;;;16.41;100.00
5062;BME280;2351;50.812;12.872;2022-10-16T08:23:30;97937.28;;;16.49;100.00
5062;BME280;2351;50.812;12.872;2022-10-16T08:26:04;97950.78;;;16.64;100.00
5062;BME280;2351;50.812;12.872;2022-10-16T08:28:36;97946.91;;;16.75;100.00
5062;BME280;2351;50.812;12.872;2022-10-16T08:31:10;97944.50;;;16.88;100.00
5062;BME280;2351;50.812;12.872;2022-10-16T08:33:44;97943.16;;;17.00;100.00
5062;BME280;2351;50.812;12.872;2022-10-16T08:36:18;97938.78;;;17.08;100.00
5062;BME280;2351;50.812;12.872;2022-10-16T08:38:55;97939.97;;;17.05;100.00
5062;BME280;2351;50.812;12.872;2022-10-16T08:42:11;97937.59;;;17.10;100.00
5062;BME280;2351;50.812;12.872;2022-10-16T08:45:12;97940.25;;;17.19;99.90
5062;BME280;2351;50.812;12.872;2022-10-16T08:47:49;97949.63;;;17.14;99.08
5062;BME280;2351;50.812;12.872;2022-10-16T08:50:25;97939.91;;;17.22;98.62
5062;BME280;2351;50.812;12.872;2022-10-16T08:53:20;97947.44;;;17.18;97.56
5062;BME280;2351;50.812;12.872;2022-10-16T08:55:54;97955.63;;;17.16;97.01
5062;BME280;2351;50.812;12.872;2022-10-16T08:58:32;97949.91;;;17.28;96.77
5062;BME280;2351;50.812;12.872;2022-10-16T09:01:12;97952.03;;;17.33;96.13
5062;BME280;2351;50.812;12.872;2022-10-16T09:03:54;97948.03;;;17.28;94.92
5062;BME280;2351;50.812;12.872;2022-10-16T09:06:38;97955.19;;;17.36;95.73
5062;BME280;2351;50.812;12.872;2022-10-16T09:09:46;97953.94;;;17.47;94.58
5062;BME280;2351;50.812;12.872;2022-10-16T09:12:35;97971.88;;;17.46;93.32
5062;BME280;2351;50.812;12.872;2022-10-16T09:15:19;97967.34;;;17.47;93.38
5062;BME280;2351;50.812;12.872;2022-10-16T09:18:06;97974.44;;;17.63;93.45
5062;BME280;2351;50.812;12.872;2022-10-16T09:20:49;97976.44;;;17.61;92.28
5062;BME280;2351;50.812;12.872;2022-10-16T09:23:25;97980.44;;;17.65;91.94
5062;BME280;2351;50.812;12.872;2022-10-16T09:26:11;97979.75;;;17.71;91.13
5062;BME280;2351;50.812;12.872;2022-10-16T09:29:13;97978.56;;;17.74;91.06
5062;BME280;2351;50.812;12.872;2022-10-16T09:31:53;97979.41;;;17.74;90.36
5062;BME280;2351;50.812;12.872;2022-10-16T09:34:32;97991.38;;;17.79;89.32
5062;BME280;2351;50.812;12.872;2022-10-16T09:37:21;97989.09;;;17.75;88.11
5062;BME280;2351;50.812;12.872;2022-10-16T09:40:13;97995.38;;;17.83;88.50
5062;BME280;2351;50.812;12.872;2022-10-16T09:42:46;97991.22;;;17.80;88.06
5062;BME280;2351;50.812;12.872;2022-10-16T09:45:23;97997.91;;;17.84;87.13
5062;BME280;2351;50.812;12.872;2022-10-16T09:48:10;98005.75;;;17.86;87.07
5062;BME280;2351;50.812;12.872;2022-10-16T09:50:42;98002.34;;;17.92;87.22
5062;BME280;2351;50.812;12.872;2022-10-16T09:53:14;98004.38;;;17.90;85.61
5062;BME280;2351;50.812;12.872;2022-10-16T09:55:52;98009.53;;;17.91;85.88
5062;BME280;2351;50.812;12.872;2022-10-16T09:58:25;98021.91;;;17.92;85.61
5062;BME280;2351;50.812;12.872;2022-10-16T10:00:57;98021.25;;;17.90;85.53
5062;BME280;2351;50.812;12.872;2022-10-16T10:03:36;98023.78;;;17.92;85.38
5062;BME280;2351;50.812;12.872;2022-10-16T10:06:22;98024.75;;;17.99;85.80
5062;BME280;2351;50.812;12.872;2022-10-16T10:09:06;98032.06;;;18.05;86.04
5062;BME280;2351;50.812;12.872;2022-10-16T10:11:44;98028.66;;;18.20;86.30
5062;BME280;2351;50.812;12.872;2022-10-16T10:14:30;98029.69;;;18.34;85.94
5062;BME280;2351;50.812;12.872;2022-10-16T10:17:13;98030.75;;;18.48;85.77
5062;BME280;2351;50.812;12.872;2022-10-16T10:19:47;98036.69;;;18.58;85.46
5062;BME280;2351;50.812;12.872;2022-10-16T10:22:25;98035.13;;;18.64;84.29
5062;BME280;2351;50.812;12.872;2022-10-16T10:25:26;98036.78;;;18.65;82.93
5062;BME280;2351;50.812;12.872;2022-10-16T10:28:19;98032.38;;;18.72;83.16
5062;BME280;2351;50.812;12.872;2022-10-16T10:31:03;98030.16;;;18.76;82.46
5062;BME280;2351;50.812;12.872;2022-10-16T10:33:42;98029.44;;;18.82;82.94
5062;BME280;2351;50.812;12.872;2022-10-16T10:36:27;98033.03;;;18.89;82.64
5062;BME280;2351;50.812;12.872;2022-10-16T10:39:02;98039.03;;;18.91;82.35
5062;BME280;2351;50.812;12.872;2022-10-16T10:42:07;98027.13;;;18.94;81.66
5062;BME280;2351;50.812;12.872;2022-10-16T10:44:54;98038.69;;;18.94;81.62
5062;BME280;2351;50.812;12.872;2022-10-16T10:47:38;98031.34;;;18.88;80.95
5062;BME280;2351;50.812;12.872;2022-10-16T10:50:18;98028.78;;;18.80;80.09
5062;BME280;2351;50.812;12.872;2022-10-16T10:52:59;98030.25;;;18.82;80.48
5062;BME280;2351;50.812;12.872;2022-10-16T10:55:39;98031.34;;;18.88;80.81
5062;BME280;2351;50.812;12.872;2022-10-16T10:58:41;98028.31;;;18.91;80.79
5062;BME280;2351;50.812;12.872;2022-10-16T11:01:16;98028.84;;;18.95;80.63
5062;BME280;2351;50.812;12.872;2022-10-16T11:04:05;98031.78;;;19.00;80.64
5062;BME280;2351;50.812;12.872;2022-10-16T11:06:40;98039.00;;;19.00;80.11
5062;BME280;2351;50.812;12.872;2022-10-16T11:09:17;98030.22;;;19.06;80.57
5062;BME280;2351;50.812;12.872;2022-10-16T11:11:54;98039.38;;;19.11;80.58
5062;BME280;2351;50.812;12.872;2022-10-16T11:14:30;98030.69;;;19.24;80.82
5062;BME280;2351;50.812;12.872;2022-10-16T11:17:08;98027.59;;;19.42;81.31
5062;BME280;2351;50.812;12.872;2022-10-16T11:19:46;98042.66;;;19.59;80.07
5062;BME280;2351;50.812;12.872;2022-10-16T11:22:24;98035.06;;;19.62;78.64
5062;BME280;2351;50.812;12.872;2022-10-16T11:25:02;98031.53;;;19.62;78.00
5062;BME280;2351;50.812;12.872;2022-10-16T11:27:38;98034.88;;;19.64;78.00
5062;BME280;2351;50.812;12.872;2022-10-16T11:30:16;98040.25;;;19.64;77.79
5062;BME280;2351;50.812;12.872;2022-10-16T11:32:56;98040.25;;;19.64;77.12
5062;BME280;2351;50.812;12.872;2022-10-16T11:35:39;98039.13;;;19.73;77.88
5062;BME280;2351;50.812;12.872;2022-10-16T11:38:18;98036.41;;;19.88;78.43
5062;BME280;2351;50.812;12.872;2022-10-16T11:40:55;98039.69;;;20.05;77.77
5062;BME280;2351;50.812;12.872;2022-10-16T11:43:32;98045.34;;;20.10;76.75
5062;BME280;2351;50.812;12.872;2022-10-16T11:46:10;98042.28;;;20.13;76.73
5062;BME280;2351;50.812;12.872;2022-10-16T11:48:48;98048.41;;;20.07;75.42
5062;BME280;2351;50.812;12.872;2022-10-16T11:51:29;98044.41;;;20.03;75.48
5062;BME280;2351;50.812;12.872;2022-10-16T11:54:08;98045.06;;;20.05;75.78
5062;BME280;2351;50.812;12.872;2022-10-16T11:56:46;98049.84;;;20.10;75.86
5062;BME280;2351;50.812;12.872;2022-10-16T11:59:23;98054.47;;;20.16;75.92
5062;BME280;2351;50.812;12.872;2022-10-16T12:02:15;98057.47;;;20.28;75.47
5062;BME280;2351;50.812;12.872;2022-10-16T12:04:58;98046.41;;;20.38;75.08
5062;BME280;2351;50.812;12.872;2022-10-16T12:07:39;98043.59;;;20.46;74.35
5062;BME280;2351;50.812;12.872;2022-10-16T12:10:20;98054.03;;;20.56;73.54
5062;BME280;2351;50.812;12.872;2022-10-16T12:12:52;98051.38;;;20.62;72.15
5062;BME280;2351;50.812;12.872;2022-10-16T12:15:25;98042.53;;;20.69;71.28
5062;BME280;2351;50.812;12.872;2022-10-16T12:17:57;98049.13;;;20.88;71.60
5062;BME280;2351;50.812;12.872;2022-10-16T12:20:30;98053.97;;;20.99;70.27
5062;BME280;2351;50.812;12.872;2022-10-16T12:23:05;98050.31;;;21.14;69.69
5062;BME280;2351;50.812;12.872;2022-10-16T12:25:39;98055.16;;;21.25;68.99
5062;BME280;2351;50.812;12.872;2022-10-16T12:28:20;98057.47;;;21.28;68.38
5062;BME280;2351;50.812;12.872;2022-10-16T12:30:53;98055.94;;;21.19;67.88
5062;BME280;2351;50.812;12.872;2022-10-16T12:33:27;98064.41;;;21.16;67.59
5062;BME280;2351;50.812;12.872;2022-10-16T12:36:00;98072.50;;;21.22;67.63
5062;BME280;2351;50.812;12.872;2022-10-16T12:38:37;98068.63;;;21.25;66.89
5062;BME280;2351;50.812;12.872;2022-10-16T12:41:09;98067.78;;;21.25;67.13
5062;BME280;2351;50.812;12.872;2022-10-16T12:43:44;98065.81;;;21.12;66.68
5062;BME280;2351;50.812;12.872;2022-10-16T12:46:23;98066.44;;;21.07;67.37
5062;BME280;2351;50.812;12.872;2022-10-16T12:49:06;98074.50;;;21.07;67.61
5062;BME280;2351;50.812;12.872;2022-10-16T12:51:39;98073.84;;;21.05;68.61
5062;BME280;2351;50.812;12.872;2022-10-16T12:54:15;98072.63;;;21.07;69.28
5062;BME280;2351;50.812;12.872;2022-10-16T12:56:54;98070.13;;;21.06;67.95
5062;BME280;2351;50.812;12.872;2022-10-16T12:59:36;98083.16;;;21.02;68.35
5062;BME280;2351;50.812;12.872;2022-10-16T13:02:38;98075.44;;;20.92;67.78
5062;BME280;2351;50.812;12.872;2022-10-16T13:05:24;98072.53;;;20.94;68.29
5062;BME280;2351;50.812;12.872;2022-10-16T13:08:06;98073.47;;;20.80;67.48
5062;BME280;2351;50.812;12.872;2022-10-16T13:10:55;98077.69;;;20.67;67.81
5062;BME280;2351;50.812;12.872;2022-10-16T13:13:44;98076.81;;;20.60;68.47
5062;BME280;2351;50.812;12.872;2022-10-16T13:16:24;98073.97;;;20.46;68.59
5062;BME280;2351;50.812;12.872;2022-10-16T13:19:09;98082.44;;;20.43;69.17
5062;BME280;2351;50.812;12.872;2022-10-16T13:21:49;98076.19;;;20.36;69.47
5062;BME280;2351;50.812;12.872;2022-10-16T13:24:36;98078.22;;;20.34;69.94
5062;BME280;2351;50.812;12.872;2022-10-16T13:27:20;98089.34;;;20.31;70.11
5062;BME280;2351;50.812;12.872;2022-10-16T13:30:00;98099.84;;;20.26;70.75
5062;BME280;2351;50.812;12.872;2022-10-16T13:32:33;98097.91;;;20.20;70.95
5062;BME280;2351;50.812;12.872;2022-10-16T13:35:18;98086.72;;;20.16;71.27
5062;BME280;2351;50.812;12.872;2022-10-16T13:37:50;98092.66;;;20.11;71.57
5062;BME280;2351;50.812;12.872;2022-10-16T13:40:23;98099.00;;;20.04;71.79
5062;BME280;2351;50.812;12.872;2022-10-16T13:42:59;98103.88;;;20.00;71.98
5062;BME280;2351;50.812;12.872;2022-10-16T13:45:31;98098.06;;;19.96;72.49
5062;BME280;2351;50.812;12.872;2022-10-16T13:48:03;98100.13;;;19.94;72.67
5062;BME280;2351;50.812;12.872;2022-10-16T13:50:35;98100.13;;;19.94;72.87
5062;BME280;2351;50.812;12.872;2022-10-16T13:53:13;98102.16;;;19.92;72.91